createdAt,value
2022-10-13T00:00:14.612Z,2.40
2022-10-13T00:02:41.623Z,2.33
2022-10-13T00:05:09.152Z,2.50
2022-10-13T00:07:36.444Z,2.30
2022-10-13T00:10:03.892Z,3.17
2022-10-13T00:12:40.777Z,2.20
2022-10-13T00:15:10.182Z,1.77
2022-10-13T00:17:37.334Z,1.55
2022-10-13T00:20:05.564Z,2.55
2022-10-13T00:22:33.086Z,1.73
2022-10-13T00:25:00.797Z,1.70
2022-10-13T00:27:27.984Z,2.25
2022-10-13T00:29:55.653Z,2.30
2022-10-13T00:32:22.803Z,1.85
2022-10-13T00:34:50.265Z,1.80
2022-10-13T00:37:18.041Z,1.80
2022-10-13T00:39:45.076Z,1.90
2022-10-13T00:42:14.062Z,2.20
2022-10-13T00:45:07.366Z,2.17
2022-10-13T00:47:36.934Z,1.77
2022-10-13T00:50:06.090Z,1.92
2022-10-13T00:52:33.521Z,1.75
2022-10-13T00:55:04.477Z,1.52
2022-10-13T00:57:32.413Z,1.50
2022-10-13T01:00:02.185Z,1.48
2022-10-13T01:02:32.338Z,1.48
2022-10-13T01:05:01.785Z,1.42
2022-10-13T01:07:28.873Z,1.30
2022-10-13T01:09:56.171Z,1.60
2022-10-13T01:12:43.851Z,1.30
2022-10-13T01:15:12.580Z,1.40
2022-10-13T01:18:01.558Z,1.20
2022-10-13T01:20:48.848Z,1.63
2022-10-13T01:23:34.769Z,1.30
2022-10-13T01:26:22.195Z,1.25
2022-10-13T01:29:20.305Z,1.50
2022-10-13T01:31:56.697Z,1.77
2022-10-13T01:34:53.520Z,1.42
2022-10-13T01:37:56.045Z,1.40
2022-10-13T01:40:24.709Z,1.55
2022-10-13T01:43:01.452Z,1.33
2022-10-13T01:45:37.952Z,1.42
2022-10-13T01:48:05.794Z,1.40
2022-10-13T01:50:38.942Z,1.50
2022-10-13T01:53:06.453Z,1.40
2022-10-13T01:55:33.494Z,1.40
2022-10-13T01:58:03.566Z,1.40
2022-10-13T02:00:33.555Z,1.20
2022-10-13T02:03:32.782Z,1.23
2022-10-13T02:06:06.129Z,1.38
2022-10-13T02:08:39.074Z,1.50
2022-10-13T02:11:19.962Z,1.50
2022-10-13T02:14:13.429Z,1.20
2022-10-13T02:16:42.087Z,1.50
2022-10-13T02:19:11.720Z,1.83
2022-10-13T02:21:39.136Z,1.30
2022-10-13T02:24:06.877Z,1.60
2022-10-13T02:26:34.269Z,1.38
2022-10-13T02:29:16.187Z,1.50
2022-10-13T02:31:43.938Z,1.60
2022-10-13T02:34:11.138Z,2.05
2022-10-13T02:36:39.420Z,1.92
2022-10-13T02:39:07.324Z,1.50
2022-10-13T02:41:34.504Z,2.08
2022-10-13T02:44:01.986Z,1.58
2022-10-13T02:46:34.869Z,1.42
2022-10-13T02:49:02.019Z,1.70
2022-10-13T02:51:30.762Z,1.45
2022-10-13T02:53:57.958Z,1.73
2022-10-13T02:56:25.132Z,1.75
2022-10-13T02:58:52.300Z,2.00
2022-10-13T03:01:19.412Z,1.77
2022-10-13T03:03:46.559Z,1.92
2022-10-13T03:06:13.894Z,1.60
2022-10-13T03:08:41.017Z,1.73
2022-10-13T03:11:08.204Z,1.95
2022-10-13T03:13:36.687Z,2.05
2022-10-13T03:16:07.227Z,2.40
2022-10-13T03:18:34.472Z,1.92
2022-10-13T03:21:03.123Z,1.88
2022-10-13T03:23:33.079Z,1.83
2022-10-13T03:26:03.656Z,2.13
2022-10-13T03:28:31.236Z,1.95
2022-10-13T03:31:02.423Z,2.22
2022-10-13T03:33:29.966Z,2.40
2022-10-13T03:36:04.347Z,2.03
2022-10-13T03:38:34.198Z,2.03
2022-10-13T03:41:08.790Z,1.65
2022-10-13T03:43:35.987Z,2.20
2022-10-13T03:46:03.726Z,2.25
2022-10-13T03:48:31.809Z,2.28
2022-10-13T03:50:59.019Z,1.90
2022-10-13T03:53:27.170Z,2.22
2022-10-13T03:55:55.647Z,2.05
2022-10-13T03:58:24.142Z,2.47
2022-10-13T04:00:53.697Z,2.35
2022-10-13T04:03:21.069Z,2.17
2022-10-13T04:05:48.358Z,2.10
2022-10-13T04:08:15.444Z,2.63
2022-10-13T04:10:42.738Z,2.20
2022-10-13T04:13:09.856Z,2.17
2022-10-13T04:15:39.797Z,2.25
2022-10-13T04:18:07.333Z,2.58
2022-10-13T04:20:38.520Z,2.10
2022-10-13T04:23:05.659Z,2.37
2022-10-13T04:25:37.165Z,2.58
2022-10-13T04:28:05.532Z,2.97
2022-10-13T04:30:35.349Z,2.50
2022-10-13T04:33:02.613Z,2.63
2022-10-13T04:35:29.896Z,3.10
2022-10-13T04:38:00.100Z,2.65
2022-10-13T04:40:28.301Z,2.53
2022-10-13T04:42:55.846Z,2.65
2022-10-13T04:45:23.127Z,2.67
2022-10-13T04:47:50.596Z,2.88
2022-10-13T04:50:22.103Z,2.40
2022-10-13T04:53:01.717Z,2.90
2022-10-13T04:55:30.647Z,2.80
2022-10-13T04:57:57.881Z,2.85
2022-10-13T05:00:25.234Z,2.83
2022-10-13T05:02:52.600Z,3.22
2022-10-13T05:05:19.671Z,3.33
2022-10-13T05:07:46.827Z,3.15
2022-10-13T05:10:14.232Z,3.17
2022-10-13T05:12:41.322Z,2.95
2022-10-13T05:15:08.988Z,3.15
2022-10-13T05:17:36.119Z,3.15
2022-10-13T05:20:08.923Z,3.10
2022-10-13T05:22:35.982Z,3.70
2022-10-13T05:25:03.378Z,3.60
2022-10-13T05:27:33.033Z,3.40
2022-10-13T05:30:03.890Z,4.07
2022-10-13T05:32:31.983Z,3.88
2022-10-13T05:35:00.373Z,3.75
2022-10-13T05:37:27.472Z,3.78
2022-10-13T05:39:54.725Z,3.70
2022-10-13T05:42:22.605Z,3.70
2022-10-13T05:44:50.027Z,3.92
2022-10-13T05:47:17.357Z,3.80
2022-10-13T05:49:55.295Z,3.80
2022-10-13T05:52:22.958Z,3.28
2022-10-13T05:54:55.805Z,3.50
2022-10-13T05:57:43.186Z,3.38
2022-10-13T06:00:12.931Z,4.55
2022-10-13T06:05:11.224Z,3.70
2022-10-13T06:07:38.200Z,3.63
2022-10-13T06:10:05.805Z,3.90
2022-10-13T06:12:33.095Z,4.00
2022-10-13T06:15:01.182Z,3.40
2022-10-13T06:17:28.314Z,3.75
2022-10-13T06:19:55.498Z,3.80
2022-10-13T06:22:22.792Z,4.25
2022-10-13T06:24:50.159Z,4.03
2022-10-13T06:27:17.360Z,3.75
2022-10-13T06:29:45.639Z,3.50
2022-10-13T06:32:12.922Z,3.97
2022-10-13T06:34:40.092Z,3.70
2022-10-13T06:37:07.153Z,3.78
2022-10-13T06:39:34.464Z,3.67
2022-10-13T06:42:04.749Z,3.73
2022-10-13T06:44:37.954Z,4.28
2022-10-13T06:47:05.729Z,4.03
2022-10-13T06:49:32.882Z,4.07
2022-10-13T06:52:00.176Z,4.25
2022-10-13T06:54:27.473Z,3.97
2022-10-13T06:56:54.554Z,3.95
2022-10-13T06:59:21.940Z,3.65
2022-10-13T07:01:52.039Z,20.27
2022-10-13T07:04:23.154Z,4.15
2022-10-13T07:06:51.158Z,4.05
2022-10-13T07:09:18.414Z,5.03
2022-10-13T07:11:46.126Z,4.53
2022-10-13T07:14:14.163Z,5.45
2022-10-13T07:16:41.243Z,4.40
2022-10-13T07:19:08.449Z,3.97
2022-10-13T07:21:37.263Z,4.75
2022-10-13T07:24:04.533Z,4.50
2022-10-13T07:26:34.145Z,4.85
2022-10-13T07:29:02.526Z,4.97
2022-10-13T07:31:32.102Z,4.97
2022-10-13T07:34:01.584Z,4.82
2022-10-13T07:36:28.937Z,4.07
2022-10-13T07:38:58.947Z,4.97
2022-10-13T07:41:31.939Z,5.03
2022-10-13T07:43:59.828Z,4.70
2022-10-13T07:46:26.895Z,5.28
2022-10-13T07:48:54.312Z,5.55
2022-10-13T07:51:22.002Z,6.25
2022-10-13T07:53:49.583Z,4.97
2022-10-13T07:56:17.008Z,5.50
2022-10-13T07:58:46.063Z,5.10
2022-10-13T08:01:13.745Z,5.63
2022-10-13T08:03:43.087Z,5.53
2022-10-13T08:06:17.179Z,5.82
2022-10-13T08:08:44.672Z,6.10
2022-10-13T08:13:51.521Z,5.75
2022-10-13T08:16:20.879Z,5.65
2022-10-13T08:18:48.579Z,5.78
2022-10-13T08:21:57.117Z,6.15
2022-10-13T08:24:12.749Z,5.13
2022-10-13T08:26:40.966Z,5.57
2022-10-13T08:29:24.325Z,5.55
2022-10-13T08:31:55.164Z,5.55
2022-10-13T08:34:23.254Z,5.25
2022-10-13T08:36:53.665Z,4.57
2022-10-13T08:39:22.737Z,4.57
2022-10-13T08:41:50.396Z,4.65
2022-10-13T08:47:38.766Z,4.20
2022-10-13T08:50:21.854Z,4.05
2022-10-13T08:53:27.360Z,4.30
2022-10-13T08:56:09.002Z,4.43
2022-10-13T08:58:37.747Z,4.15
2022-10-13T09:01:17.882Z,4.05
2022-10-13T09:03:54.995Z,4.00
2022-10-13T09:06:29.936Z,3.63
2022-10-13T09:09:02.488Z,3.83
2022-10-13T09:11:34.729Z,3.97
2022-10-13T09:14:04.417Z,3.70
2022-10-13T09:16:37.708Z,3.72
2022-10-13T09:19:21.222Z,3.25
2022-10-13T09:21:53.290Z,3.42
2022-10-13T09:24:21.585Z,3.35
2022-10-13T09:26:50.382Z,3.45
2022-10-13T09:29:25.429Z,3.17
2022-10-13T09:31:54.555Z,3.38
2022-10-13T09:34:22.735Z,3.17
2022-10-13T09:37:03.211Z,3.03
2022-10-13T09:39:33.646Z,3.00
2022-10-13T09:42:27.402Z,2.92
2022-10-13T09:45:15.166Z,2.45
2022-10-13T09:47:42.626Z,2.13
2022-10-13T09:50:21.156Z,2.97
2022-10-13T09:52:49.321Z,2.50
2022-10-13T09:55:36.150Z,2.67
2022-10-13T09:58:09.899Z,2.13
2022-10-13T10:00:38.531Z,2.08
2022-10-13T10:03:26.913Z,2.17
2022-10-13T10:06:00.612Z,2.05
2022-10-13T10:09:02.606Z,2.00
2022-10-13T10:11:38.255Z,1.98
2022-10-13T10:14:26.736Z,1.73
2022-10-13T10:17:03.838Z,1.70
2022-10-13T10:19:57.316Z,1.65
2022-10-13T10:22:50.056Z,1.98
2022-10-13T10:25:30.583Z,1.90
2022-10-13T10:28:23.247Z,1.70
2022-10-13T10:31:06.490Z,1.75
2022-10-13T10:34:04.801Z,1.90
2022-10-13T10:36:42.424Z,2.13
2022-10-13T10:39:31.164Z,1.73
2022-10-13T10:42:27.028Z,1.67
2022-10-13T10:44:55.110Z,1.95
2022-10-13T10:47:29.300Z,1.77
2022-10-13T10:50:02.410Z,1.83
2022-10-13T10:53:03.244Z,1.80
2022-10-13T10:55:59.144Z,1.95
2022-10-13T10:58:52.428Z,2.03
2022-10-13T11:01:28.283Z,1.80
2022-10-13T11:04:24.856Z,2.53
2022-10-13T11:06:52.524Z,2.25
2022-10-13T11:09:44.085Z,2.25
2022-10-13T11:12:49.763Z,4.18
2022-10-13T11:15:28.998Z,4.32
2022-10-13T11:17:57.369Z,4.95
2022-10-13T11:20:25.505Z,4.60
2022-10-13T11:22:58.882Z,4.57
2022-10-13T11:25:36.036Z,5.43
2022-10-13T11:28:42.868Z,5.28
2022-10-13T11:31:14.932Z,5.13
2022-10-13T11:33:42.067Z,5.45
2022-10-13T11:36:38.405Z,5.50
2022-10-13T11:39:27.712Z,5.20
2022-10-13T11:42:39.107Z,4.97
2022-10-13T11:45:14.491Z,4.45
2022-10-13T11:48:12.893Z,3.70
2022-10-13T11:50:49.507Z,3.90
2022-10-13T11:53:21.674Z,4.57
2022-10-13T11:55:54.369Z,3.92
2022-10-13T11:58:26.545Z,4.00
2022-10-13T12:01:07.543Z,4.35
2022-10-13T12:03:43.611Z,3.30
2022-10-13T12:06:35.075Z,3.80
2022-10-13T12:09:07.902Z,3.70
2022-10-13T12:11:37.118Z,3.28
2022-10-13T12:14:06.233Z,3.80
2022-10-13T12:16:33.271Z,3.90
2022-10-13T12:19:20.806Z,3.80
2022-10-13T12:21:52.038Z,3.38
2022-10-13T12:24:23.657Z,3.53
2022-10-13T12:26:51.480Z,3.63
2022-10-13T12:29:19.313Z,3.60
2022-10-13T12:31:48.696Z,2.90
2022-10-13T12:34:24.995Z,3.47
2022-10-13T12:37:07.032Z,3.08
2022-10-13T12:39:34.368Z,3.80
2022-10-13T12:42:02.489Z,2.80
2022-10-13T12:44:33.098Z,2.65
2022-10-13T12:47:02.442Z,2.60
2022-10-13T12:49:36.514Z,2.40
2022-10-13T12:52:11.160Z,2.10
2022-10-13T12:54:56.234Z,2.17
2022-10-13T12:57:36.363Z,1.75
2022-10-13T13:00:24.803Z,1.98
2022-10-13T13:02:52.997Z,1.70
2022-10-13T13:05:34.660Z,1.98
2022-10-13T13:08:26.351Z,1.70
2022-10-13T13:10:57.597Z,1.65
2022-10-13T13:13:25.210Z,1.60
2022-10-13T13:15:52.866Z,1.48
2022-10-13T13:18:28.987Z,1.90
2022-10-13T13:20:57.749Z,1.80
2022-10-13T13:23:25.291Z,1.88
2022-10-13T13:26:23.112Z,1.45
2022-10-13T13:28:54.296Z,1.40
2022-10-13T13:31:23.727Z,1.40
2022-10-13T13:33:52.640Z,1.20
2022-10-13T13:36:24.579Z,3.50
2022-10-13T13:38:55.380Z,2.63
2022-10-13T13:41:23.097Z,1.80
2022-10-13T13:43:50.856Z,1.60
2022-10-13T13:46:23.109Z,1.60
2022-10-13T13:48:50.907Z,1.50
2022-10-13T13:51:18.687Z,1.52
2022-10-13T13:53:46.287Z,1.20
2022-10-13T13:56:14.702Z,1.70
2022-10-13T13:58:42.726Z,1.40
2022-10-13T14:01:10.577Z,1.42
2022-10-13T14:03:38.017Z,1.38
2022-10-13T14:06:08.088Z,1.50
2022-10-13T14:08:42.740Z,1.60
2022-10-13T14:11:11.507Z,1.50
2022-10-13T14:13:39.156Z,2.60
2022-10-13T14:16:07.635Z,1.85
2022-10-13T14:18:35.261Z,1.38
2022-10-13T14:21:06.270Z,1.48
2022-10-13T14:23:33.581Z,1.45
2022-10-13T14:26:05.767Z,1.35
2022-10-13T14:28:33.117Z,1.40
2022-10-13T14:31:08.078Z,1.40
2022-10-13T14:33:35.792Z,1.92
2022-10-13T14:36:04.087Z,1.77
2022-10-13T14:38:37.470Z,1.67
2022-10-13T14:41:06.073Z,1.40
2022-10-13T14:43:33.670Z,1.67
2022-10-13T14:46:05.080Z,1.25
2022-10-13T14:48:33.191Z,1.50
2022-10-13T14:51:03.783Z,1.55
2022-10-13T14:53:35.767Z,1.70
2022-10-13T14:56:03.089Z,1.70
2022-10-13T14:58:33.046Z,2.30
2022-10-13T15:01:00.868Z,1.70
2022-10-13T15:03:28.299Z,1.63
2022-10-13T15:05:55.474Z,2.03
2022-10-13T15:08:25.852Z,1.80
2022-10-13T15:11:19.876Z,2.08
2022-10-13T15:13:47.394Z,2.17
2022-10-13T15:16:21.919Z,2.20
2022-10-13T15:18:49.268Z,1.75
2022-10-13T15:21:16.878Z,1.98
2022-10-13T15:23:44.430Z,1.67
2022-10-13T15:26:12.377Z,1.40
2022-10-13T15:28:42.043Z,1.40
2022-10-13T15:31:10.498Z,1.70
2022-10-13T15:33:38.290Z,1.75
2022-10-13T15:36:05.632Z,1.92
2022-10-13T15:38:33.379Z,1.63
2022-10-13T15:41:04.719Z,1.30
2022-10-13T15:43:32.710Z,1.40
2022-10-13T15:46:07.565Z,2.58
2022-10-13T15:48:35.424Z,1.77
2022-10-13T15:51:02.949Z,1.45
2022-10-13T15:53:30.741Z,1.27
2022-10-13T15:55:58.172Z,1.48
2022-10-13T15:58:25.303Z,1.23
2022-10-13T16:00:52.530Z,1.55
2022-10-13T16:03:19.755Z,1.60
2022-10-13T16:05:47.031Z,1.40
2022-10-13T16:08:14.990Z,1.35
2022-10-13T16:10:42.702Z,1.50
2022-10-13T16:13:11.910Z,1.33
2022-10-13T16:15:39.422Z,1.50
2022-10-13T16:18:06.699Z,1.40
2022-10-13T16:20:37.748Z,1.40
2022-10-13T16:23:05.274Z,1.58
2022-10-13T16:25:32.594Z,1.42
2022-10-13T16:28:00.924Z,1.23
2022-10-13T16:30:31.097Z,1.40
2022-10-13T16:35:25.708Z,1.40
2022-10-13T16:37:53.031Z,2.63
2022-10-13T16:40:20.178Z,1.63
2022-10-13T16:42:47.599Z,2.20
2022-10-13T16:45:17.225Z,2.20
2022-10-13T16:47:44.436Z,1.67
2022-10-13T16:50:11.469Z,1.85
2022-10-13T16:52:38.771Z,1.65
2022-10-13T16:55:06.375Z,1.75
2022-10-13T16:57:33.431Z,1.95
2022-10-13T17:00:01.320Z,2.03
2022-10-13T17:02:32.498Z,1.70
2022-10-13T17:04:59.774Z,1.77
2022-10-13T17:07:27.101Z,1.90
2022-10-13T17:09:54.488Z,2.17
2022-10-13T17:12:21.815Z,2.00
2022-10-13T17:14:49.339Z,2.10
2022-10-13T17:17:16.812Z,1.70
2022-10-13T17:19:44.318Z,2.53
2022-10-13T17:22:11.887Z,2.13
2022-10-13T17:24:39.724Z,1.98
2022-10-13T17:27:06.840Z,2.22
2022-10-13T17:29:34.051Z,2.15
2022-10-13T17:32:02.875Z,2.38
2022-10-13T17:34:30.093Z,2.20
2022-10-13T17:37:02.201Z,1.98
2022-10-13T17:39:31.579Z,2.30
2022-10-13T17:41:58.761Z,2.10
2022-10-13T17:44:25.947Z,2.25
2022-10-13T17:46:53.136Z,2.20
2022-10-13T17:49:20.240Z,2.45
2022-10-13T17:51:50.529Z,2.40
2022-10-13T17:56:47.663Z,1.95
2022-10-13T17:59:15.853Z,2.20
2022-10-13T18:01:43.833Z,2.20
2022-10-13T18:04:18.252Z,3.17
2022-10-13T18:06:46.553Z,2.08
2022-10-13T18:09:18.870Z,2.58
2022-10-13T18:11:50.311Z,2.88
2022-10-13T18:14:23.902Z,3.10
2022-10-13T18:16:52.115Z,3.30
2022-10-13T18:19:19.469Z,3.03
2022-10-13T18:21:46.635Z,3.22
2022-10-13T18:24:13.997Z,3.22
2022-10-13T18:26:41.199Z,3.20
2022-10-13T18:29:08.948Z,3.38
2022-10-13T18:31:36.970Z,3.58
2022-10-13T18:34:05.745Z,3.67
2022-10-13T18:36:37.299Z,4.10
2022-10-13T18:39:13.530Z,4.00
2022-10-13T18:41:43.030Z,3.63
2022-10-13T18:44:10.174Z,4.00
2022-10-13T18:46:38.258Z,3.53
2022-10-13T18:49:06.272Z,3.30
2022-10-13T18:51:36.351Z,3.60
2022-10-13T18:54:04.245Z,3.67
2022-10-13T18:56:33.263Z,4.10
2022-10-13T18:59:01.751Z,4.28
2022-10-13T19:01:33.320Z,4.75
2022-10-13T19:04:01.449Z,4.50
2022-10-13T19:06:34.233Z,4.05
2022-10-13T19:09:09.606Z,4.50
2022-10-13T19:11:36.942Z,4.97
2022-10-13T19:14:05.574Z,4.45
2022-10-13T19:16:34.245Z,4.82
2022-10-13T19:19:01.650Z,5.00
2022-10-13T19:21:28.888Z,4.53
2022-10-13T19:24:00.930Z,4.68
2022-10-13T19:26:29.948Z,4.80
2022-10-13T19:28:58.955Z,4.40
2022-10-13T19:31:27.888Z,4.80
2022-10-13T19:33:56.678Z,4.97
2022-10-13T19:36:32.452Z,4.60
2022-10-13T19:39:02.372Z,4.60
2022-10-13T19:41:31.314Z,4.90
2022-10-13T19:44:00.969Z,4.88
2022-10-13T19:46:39.140Z,4.60
2022-10-13T19:49:06.390Z,4.88
2022-10-13T19:51:35.425Z,4.90
2022-10-13T19:54:02.612Z,5.03
2022-10-13T19:56:34.419Z,4.35
2022-10-13T19:59:02.328Z,4.65
2022-10-13T20:01:32.760Z,4.53
2022-10-13T20:04:03.186Z,5.78
2022-10-13T20:06:33.684Z,5.07
2022-10-13T20:09:01.941Z,4.38
2022-10-13T20:11:30.065Z,4.30
2022-10-13T20:13:57.418Z,5.05
2022-10-13T20:16:25.185Z,4.65
2022-10-13T20:18:54.434Z,5.65
2022-10-13T20:21:21.791Z,4.80
2022-10-13T20:23:49.466Z,4.53
2022-10-13T20:26:16.811Z,4.43
2022-10-13T20:28:45.167Z,4.00
2022-10-13T20:31:13.620Z,4.15
2022-10-13T20:33:41.753Z,4.20
2022-10-13T20:36:11.547Z,4.55
2022-10-13T20:38:39.733Z,4.00
2022-10-13T20:41:14.967Z,4.00
2022-10-13T20:43:43.252Z,4.97
2022-10-13T20:46:11.688Z,5.25
2022-10-13T20:49:08.754Z,5.03
2022-10-13T20:51:28.220Z,4.30
2022-10-13T20:53:55.739Z,5.00
2022-10-13T20:56:24.776Z,5.30
2022-10-13T20:58:52.008Z,5.47
2022-10-13T21:01:20.136Z,5.03
2022-10-13T21:03:50.956Z,5.15
2022-10-13T21:06:18.215Z,5.18
2022-10-13T21:08:46.041Z,5.10
2022-10-13T21:11:14.398Z,5.35
2022-10-13T21:13:42.061Z,4.68
2022-10-13T21:16:10.788Z,4.65
2022-10-13T21:18:38.122Z,5.18
2022-10-13T21:21:10.482Z,5.30
2022-10-13T21:23:40.100Z,5.70
2022-10-13T21:26:08.305Z,5.72
2022-10-13T21:28:37.152Z,5.60
2022-10-13T21:31:06.504Z,5.70
2022-10-13T21:33:37.975Z,5.72
2022-10-13T21:36:27.631Z,5.38
2022-10-13T21:38:56.977Z,5.10
2022-10-13T21:41:24.286Z,5.53
2022-10-13T21:43:52.207Z,5.30
2022-10-13T21:46:28.262Z,5.75
2022-10-13T21:48:56.847Z,5.22
2022-10-13T21:51:38.049Z,5.35
2022-10-13T21:54:11.632Z,5.40
2022-10-13T21:56:39.253Z,4.85
2022-10-13T21:59:06.561Z,5.38
2022-10-13T22:01:33.772Z,5.00
2022-10-13T22:04:02.324Z,4.97
2022-10-13T22:06:31.158Z,4.63
2022-10-13T22:09:00.313Z,4.60
2022-10-13T22:15:46.411Z,5.03
2022-10-13T22:15:51.416Z,4.63
2022-10-13T22:18:19.421Z,4.45
2022-10-13T22:20:46.750Z,4.68
2022-10-13T22:23:14.174Z,5.38
2022-10-13T22:25:45.635Z,4.57
2022-10-13T22:28:12.811Z,4.63
2022-10-13T22:30:40.646Z,4.40
2022-10-13T22:33:10.253Z,4.60
2022-10-13T22:35:37.277Z,4.70
2022-10-13T22:38:04.497Z,4.47
2022-10-13T22:40:32.112Z,4.47
2022-10-13T22:43:01.458Z,4.82
2022-10-13T22:45:28.608Z,4.28
2022-10-13T22:47:55.868Z,4.40
2022-10-13T22:50:23.251Z,4.65
2022-10-13T22:52:50.931Z,4.78
2022-10-13T22:55:18.317Z,4.63
2022-10-13T22:57:47.949Z,3.72
2022-10-13T23:00:15.595Z,4.20
2022-10-13T23:02:43.827Z,4.75
2022-10-13T23:05:11.042Z,4.80
2022-10-13T23:07:38.246Z,4.20
2022-10-13T23:10:05.883Z,4.13
2022-10-13T23:12:33.029Z,3.70
2022-10-13T23:15:00.434Z,4.00
2022-10-13T23:17:27.841Z,4.88
2022-10-13T23:19:55.196Z,4.35
2022-10-13T23:22:22.440Z,4.15
2022-10-13T23:24:49.635Z,4.43
2022-10-13T23:27:17.097Z,4.80
2022-10-13T23:29:44.320Z,4.70
2022-10-13T23:32:12.570Z,4.63
2022-10-13T23:34:42.611Z,5.60
2022-10-13T23:37:10.483Z,4.75
2022-10-13T23:39:37.730Z,4.70
2022-10-13T23:42:04.882Z,4.80
2022-10-13T23:44:32.064Z,5.38
2022-10-13T23:47:01.867Z,5.03
2022-10-13T23:49:28.912Z,4.72
2022-10-13T23:51:56.559Z,5.47
2022-10-13T23:54:23.999Z,5.07
2022-10-13T23:56:51.162Z,5.40
2022-10-13T23:59:18.318Z,5.93
